createdAt,value
2023-04-14T00:01:37.841Z,15.90
2023-04-14T00:04:06.097Z,15.90
2023-04-14T00:06:34.200Z,15.90
2023-04-14T00:09:02.461Z,16.00
2023-04-14T00:11:32.010Z,16.00
2023-04-14T00:14:01.566Z,15.90
2023-04-14T00:16:30.246Z,15.80
2023-04-14T00:18:58.686Z,15.80
2023-04-14T00:21:27.492Z,15.80
2023-04-14T00:23:56.743Z,15.80
2023-04-14T00:26:24.994Z,15.90
2023-04-14T00:28:54.389Z,15.90
2023-04-14T00:31:22.463Z,15.90
2023-04-14T00:33:50.520Z,15.90
2023-04-14T00:36:18.528Z,15.90
2023-04-14T00:38:46.570Z,15.90
2023-04-14T00:41:14.588Z,15.90
2023-04-14T00:43:42.715Z,15.80
2023-04-14T00:46:12.296Z,15.80
2023-04-14T00:48:40.492Z,15.80
2023-04-14T00:51:08.489Z,15.70
2023-04-14T00:53:36.546Z,15.70
2023-04-14T00:56:04.929Z,15.60
2023-04-14T00:58:32.954Z,15.70
2023-04-14T01:01:01.005Z,15.70
2023-04-14T01:03:30.580Z,15.80
2023-04-14T01:05:58.800Z,15.70
2023-04-14T01:08:27.207Z,15.80
2023-04-14T01:10:59.876Z,15.80
2023-04-14T01:13:33.753Z,15.80
2023-04-14T01:16:02.709Z,15.80
2023-04-14T01:18:34.526Z,15.80
2023-04-14T01:21:07.122Z,15.70
2023-04-14T01:23:39.056Z,15.70
2023-04-14T01:26:25.024Z,15.70
2023-04-14T01:29:29.371Z,15.80
2023-04-14T01:32:02.952Z,15.80
2023-04-14T01:34:34.547Z,15.80
2023-04-14T01:37:06.392Z,15.80
2023-04-14T01:39:37.154Z,15.80
2023-04-14T01:42:07.351Z,15.80
2023-04-14T01:44:35.808Z,15.80
2023-04-14T01:47:06.919Z,15.80
2023-04-14T01:49:35.559Z,15.70
2023-04-14T01:52:03.811Z,15.70
2023-04-14T01:54:32.449Z,15.70
2023-04-14T01:57:01.774Z,15.80
2023-04-14T01:59:30.105Z,15.80
2023-04-14T02:01:58.293Z,15.80
2023-04-14T02:04:27.813Z,15.70
2023-04-14T02:06:56.219Z,15.70
2023-04-14T02:09:24.260Z,15.80
2023-04-14T02:11:52.317Z,15.80
2023-04-14T02:14:20.330Z,15.80
2023-04-14T02:16:48.589Z,15.70
2023-04-14T02:19:17.402Z,15.60
2023-04-14T02:21:47.116Z,15.60
2023-04-14T02:24:15.142Z,15.70
2023-04-14T02:26:46.266Z,15.70
2023-04-14T02:29:15.512Z,15.70
2023-04-14T02:31:44.287Z,15.70
2023-04-14T02:34:12.845Z,15.70
2023-04-14T02:36:43.365Z,15.80
2023-04-14T02:39:14.883Z,15.80
2023-04-14T02:41:43.415Z,15.80
2023-04-14T02:44:14.132Z,15.70
2023-04-14T02:46:43.383Z,15.70
2023-04-14T02:49:13.020Z,15.60
2023-04-14T02:51:41.211Z,15.60
2023-04-14T02:54:09.252Z,15.50
2023-04-14T02:56:38.668Z,15.50
2023-04-14T02:59:06.707Z,15.50
2023-04-14T03:01:34.861Z,15.50
2023-04-14T03:04:03.011Z,15.60
2023-04-14T03:06:31.720Z,15.60
2023-04-14T03:09:00.446Z,15.70
2023-04-14T03:11:28.648Z,15.60
2023-04-14T03:13:58.073Z,15.70
2023-04-14T03:16:27.588Z,15.70
2023-04-14T03:18:55.737Z,15.70
2023-04-14T03:21:24.374Z,15.60
2023-04-14T03:23:52.925Z,15.60
2023-04-14T03:26:21.122Z,15.60
2023-04-14T03:28:50.788Z,15.60
2023-04-14T03:31:20.457Z,15.60
2023-04-14T03:33:55.580Z,15.60
2023-04-14T03:36:23.763Z,15.60
2023-04-14T03:38:55.354Z,15.60
2023-04-14T03:41:23.550Z,15.60
2023-04-14T03:43:54.650Z,15.70
2023-04-14T03:46:26.327Z,15.60
2023-04-14T03:48:54.858Z,15.60
2023-04-14T03:51:23.655Z,15.60
2023-04-14T03:53:51.969Z,15.60
2023-04-14T03:56:19.978Z,15.60
2023-04-14T03:58:49.408Z,15.60
2023-04-14T04:01:17.538Z,15.70
2023-04-14T04:03:47.133Z,15.70
2023-04-14T04:06:15.297Z,15.60
2023-04-14T04:08:43.319Z,15.60
2023-04-14T04:11:11.446Z,15.70
2023-04-14T04:13:39.460Z,15.70
2023-04-14T04:16:08.421Z,15.60
2023-04-14T04:18:38.226Z,15.60
2023-04-14T04:21:07.698Z,15.50
2023-04-14T04:23:35.715Z,15.50
2023-04-14T04:26:03.794Z,15.60
2023-04-14T04:28:31.910Z,15.50
2023-04-14T04:30:59.949Z,15.60
2023-04-14T04:33:28.072Z,15.60
2023-04-14T04:35:56.312Z,15.60
2023-04-14T04:38:25.707Z,15.60
2023-04-14T04:40:53.778Z,15.70
2023-04-14T04:43:21.808Z,15.60
2023-04-14T04:46:10.096Z,15.60
2023-04-14T04:48:38.270Z,15.50
2023-04-14T04:51:06.396Z,15.50
2023-04-14T04:53:36.083Z,15.50
2023-04-14T04:56:04.155Z,15.40
2023-04-14T04:58:32.185Z,15.40
2023-04-14T05:01:00.311Z,15.40
2023-04-14T05:03:28.343Z,15.40
2023-04-14T05:05:56.466Z,15.40
2023-04-14T05:08:24.536Z,15.50
2023-04-14T05:10:53.928Z,15.50
2023-04-14T05:13:22.672Z,15.50
2023-04-14T05:15:50.768Z,15.60
2023-04-14T05:18:18.792Z,15.60
2023-04-14T05:20:46.754Z,15.50
2023-04-14T05:23:14.761Z,15.50
2023-04-14T05:25:42.768Z,15.50
2023-04-14T05:28:14.146Z,15.50
2023-04-14T05:30:42.137Z,15.60
2023-04-14T05:33:10.998Z,15.50
2023-04-14T05:35:39.109Z,15.50
2023-04-14T05:38:07.096Z,15.60
2023-04-14T05:40:35.452Z,15.50
2023-04-14T05:43:03.544Z,15.60
2023-04-14T05:45:33.069Z,15.60
2023-04-14T05:48:01.172Z,15.50
2023-04-14T05:50:29.212Z,15.50
2023-04-14T05:52:57.324Z,15.40
2023-04-14T05:55:25.383Z,15.50
2023-04-14T05:57:53.629Z,15.50
2023-04-14T06:00:23.433Z,15.50
2023-04-14T06:02:52.932Z,15.50
2023-04-14T06:05:21.438Z,15.50
2023-04-14T06:07:49.444Z,15.60
2023-04-14T06:10:18.197Z,15.60
2023-04-14T06:12:46.242Z,15.60
2023-04-14T06:15:14.264Z,15.60
2023-04-14T06:17:42.338Z,15.60
2023-04-14T06:20:12.764Z,15.50
2023-04-14T06:22:40.782Z,15.60
2023-04-14T06:25:10.961Z,15.50
2023-04-14T06:27:38.997Z,15.50
2023-04-14T06:30:08.296Z,15.60
2023-04-14T06:32:36.359Z,15.50
2023-04-14T06:35:05.109Z,15.60
2023-04-14T06:37:34.674Z,15.60
2023-04-14T06:40:02.680Z,15.60
2023-04-14T06:42:31.005Z,15.60
2023-04-14T06:44:59.049Z,15.60
2023-04-14T06:47:27.200Z,15.50
2023-04-14T06:49:55.196Z,15.50
2023-04-14T06:52:23.204Z,15.50
2023-04-14T06:54:52.540Z,15.40
2023-04-14T06:57:20.524Z,15.40
2023-04-14T06:59:48.571Z,15.40
2023-04-14T07:02:16.609Z,15.40
2023-04-14T07:04:44.698Z,15.50
2023-04-14T07:07:14.423Z,15.40
2023-04-14T07:09:43.312Z,15.50
2023-04-14T07:12:15.538Z,15.60
2023-04-14T07:14:43.554Z,15.50
2023-04-14T07:17:11.524Z,15.60
2023-04-14T07:19:39.576Z,15.50
2023-04-14T07:22:09.081Z,15.60
2023-04-14T07:24:37.127Z,15.50
2023-04-14T07:27:07.390Z,15.50
2023-04-14T07:29:37.478Z,15.60
2023-04-14T07:32:05.920Z,15.60
2023-04-14T07:34:34.013Z,15.60
2023-04-14T07:37:02.027Z,15.60
2023-04-14T07:39:30.409Z,15.60
2023-04-14T07:41:58.812Z,15.70
2023-04-14T07:44:27.444Z,15.70
2023-04-14T07:46:56.799Z,15.70
2023-04-14T07:49:24.879Z,15.70
2023-04-14T07:51:52.887Z,15.70
2023-04-14T07:54:21.002Z,15.70
2023-04-14T07:56:49.792Z,15.70
2023-04-14T07:59:17.813Z,15.70
2023-04-14T08:01:45.946Z,15.70
2023-04-14T08:04:15.550Z,15.70
2023-04-14T08:06:43.726Z,15.70
2023-04-14T08:09:12.643Z,15.70
2023-04-14T08:11:40.671Z,15.80
2023-04-14T08:14:08.689Z,15.70
2023-04-14T08:16:37.252Z,15.70
2023-04-14T08:19:06.159Z,15.80
2023-04-14T08:21:35.563Z,15.80
2023-04-14T08:24:03.639Z,15.80
2023-04-14T08:26:31.654Z,15.80
2023-04-14T08:28:59.882Z,15.80
2023-04-14T08:31:28.113Z,15.90
2023-04-14T08:33:57.563Z,15.90
2023-04-14T08:36:27.222Z,15.90
2023-04-14T08:38:56.884Z,16.00
2023-04-14T08:41:24.901Z,16.00
2023-04-14T08:43:52.905Z,15.90
2023-04-14T08:46:21.418Z,16.10
2023-04-14T08:48:49.480Z,16.10
2023-04-14T08:51:21.712Z,16.20
2023-04-14T08:53:49.854Z,16.10
2023-04-14T08:56:19.545Z,16.20
2023-04-14T08:58:48.206Z,16.10
2023-04-14T09:01:16.783Z,16.20
2023-04-14T09:03:44.915Z,16.20
2023-04-14T09:06:13.665Z,16.30
2023-04-14T09:08:45.039Z,16.30
2023-04-14T09:11:13.174Z,16.30
2023-04-14T09:13:42.928Z,16.20
2023-04-14T09:16:11.195Z,16.20
2023-04-14T09:18:40.323Z,16.20
2023-04-14T09:21:49.254Z,16.30
2023-04-14T09:23:56.778Z,16.30
2023-04-14T09:26:25.092Z,16.40
2023-04-14T09:28:54.489Z,16.30
2023-04-14T09:31:22.550Z,16.30
2023-04-14T09:33:51.306Z,16.40
2023-04-14T09:36:20.443Z,16.30
2023-04-14T09:38:49.946Z,16.30
2023-04-14T09:41:18.200Z,16.30
2023-04-14T09:43:47.133Z,16.30
2023-04-14T09:46:17.154Z,16.30
2023-04-14T09:48:55.553Z,16.40
2023-04-14T09:51:24.417Z,16.40
2023-04-14T09:53:53.756Z,16.50
2023-04-14T09:56:27.908Z,16.40
2023-04-14T09:58:59.501Z,16.30
2023-04-14T10:01:32.211Z,16.30
2023-04-14T10:04:01.490Z,16.30
2023-04-14T10:06:31.316Z,16.30
2023-04-14T10:08:59.934Z,16.30
2023-04-14T10:11:29.610Z,16.30
2023-04-14T10:13:59.146Z,16.30
2023-04-14T10:16:27.501Z,16.30
2023-04-14T10:18:57.586Z,16.50
2023-04-14T10:21:25.894Z,16.50
2023-04-14T10:23:53.880Z,16.50
2023-04-14T10:26:21.875Z,16.40
2023-04-14T10:28:51.006Z,16.40
2023-04-14T10:31:20.825Z,16.40
2023-04-14T10:33:49.191Z,16.40
2023-04-14T10:36:26.237Z,16.40
2023-04-14T10:39:00.364Z,16.50
2023-04-14T10:41:28.805Z,16.50
2023-04-14T10:43:56.803Z,16.50
2023-04-14T10:46:26.046Z,16.60
2023-04-14T10:48:54.645Z,16.60
2023-04-14T10:51:22.966Z,16.60
2023-04-14T10:53:55.559Z,16.60
2023-04-14T10:56:24.086Z,16.60
2023-04-14T10:58:55.645Z,16.50
2023-04-14T11:01:27.391Z,16.50
2023-04-14T11:03:56.325Z,16.40
2023-04-14T11:06:49.625Z,16.40
2023-04-14T11:09:34.646Z,16.50
2023-04-14T11:12:07.448Z,16.40
2023-04-14T11:14:37.296Z,16.50
2023-04-14T11:17:06.121Z,16.60
2023-04-14T11:19:34.337Z,16.60
2023-04-14T11:22:02.449Z,16.60
2023-04-14T11:24:32.216Z,16.70
2023-04-14T11:27:00.622Z,16.70
2023-04-14T11:29:28.772Z,16.60
2023-04-14T11:32:04.177Z,16.60
2023-04-14T11:34:32.821Z,16.60
2023-04-14T11:37:03.987Z,16.70
2023-04-14T11:39:35.601Z,16.70
2023-04-14T11:42:03.853Z,16.70
2023-04-14T11:44:31.877Z,16.70
2023-04-14T11:46:59.932Z,16.70
2023-04-14T11:49:35.566Z,16.80
2023-04-14T11:52:08.093Z,16.80
2023-04-14T11:54:38.372Z,16.90
2023-04-14T11:57:13.545Z,16.80
2023-04-14T11:59:44.577Z,16.70
2023-04-14T12:02:19.757Z,16.80
2023-04-14T12:04:49.279Z,16.80
2023-04-14T12:07:19.901Z,16.80
2023-04-14T12:09:50.143Z,16.80
2023-04-14T12:12:20.201Z,16.90
2023-04-14T12:14:49.305Z,16.90
2023-04-14T12:17:18.891Z,16.90
2023-04-14T12:19:47.123Z,17.00
2023-04-14T12:22:16.254Z,17.00
2023-04-14T12:24:44.404Z,16.90
2023-04-14T12:27:15.147Z,16.90
2023-04-14T12:29:44.802Z,16.90
2023-04-14T12:32:12.952Z,16.90
2023-04-14T12:34:41.067Z,16.90
2023-04-14T12:37:09.806Z,16.90
2023-04-14T12:39:51.766Z,17.00
2023-04-14T12:42:21.247Z,17.00
2023-04-14T12:44:56.537Z,17.00
2023-04-14T12:47:28.919Z,17.00
2023-04-14T12:49:57.044Z,17.10
2023-04-14T12:52:35.130Z,17.10
2023-04-14T12:55:04.748Z,17.00
2023-04-14T12:57:34.591Z,17.00
2023-04-14T13:00:04.746Z,17.00
2023-04-14T13:02:33.366Z,16.90
2023-04-14T13:05:01.594Z,16.90
2023-04-14T13:07:29.649Z,16.90
2023-04-14T13:09:57.797Z,16.90
2023-04-14T13:12:25.916Z,17.00
2023-04-14T13:14:55.629Z,16.90
2023-04-14T13:17:23.729Z,17.00
2023-04-14T13:19:52.814Z,16.90
2023-04-14T13:22:20.964Z,16.90
2023-04-14T13:24:49.989Z,17.00
2023-04-14T13:27:18.044Z,17.00
2023-04-14T13:29:46.207Z,16.90
2023-04-14T13:32:15.641Z,17.00
2023-04-14T13:34:43.978Z,17.00
2023-04-14T13:37:12.023Z,17.00
2023-04-14T13:39:40.160Z,16.90
2023-04-14T13:42:08.680Z,16.90
2023-04-14T13:44:37.754Z,16.90
2023-04-14T13:47:05.889Z,16.90
2023-04-14T13:49:35.371Z,16.90
2023-04-14T13:52:03.431Z,17.00
2023-04-14T13:54:31.488Z,17.00
2023-04-14T13:56:59.562Z,17.00
2023-04-14T13:59:27.595Z,16.90
2023-04-14T14:01:55.743Z,16.90
2023-04-14T14:04:24.095Z,16.90
2023-04-14T14:06:53.705Z,16.80
2023-04-14T14:09:21.767Z,16.80
2023-04-14T14:11:49.775Z,16.80
2023-04-14T14:14:18.380Z,16.80
2023-04-14T14:16:46.545Z,16.80
2023-04-14T14:19:17.244Z,16.80
2023-04-14T14:21:45.843Z,16.90
2023-04-14T14:24:15.282Z,16.90
2023-04-14T14:26:43.352Z,16.80
2023-04-14T14:29:11.406Z,16.80
2023-04-14T14:31:39.513Z,16.80
2023-04-14T14:34:07.975Z,16.80
2023-04-14T14:36:35.982Z,16.70
2023-04-14T14:39:04.130Z,16.80
2023-04-14T14:41:33.655Z,16.80
2023-04-14T14:44:01.951Z,16.80
2023-04-14T14:46:30.135Z,16.90
2023-04-14T14:48:58.332Z,17.00
2023-04-14T14:51:27.700Z,17.00
2023-04-14T14:54:08.832Z,17.00
2023-04-14T14:56:39.061Z,16.90
2023-04-14T14:59:08.542Z,16.80
2023-04-14T15:01:37.858Z,16.80
2023-04-14T15:04:06.536Z,16.80
2023-04-14T15:06:35.926Z,16.70
2023-04-14T15:09:05.428Z,16.70
2023-04-14T15:11:33.983Z,16.70
2023-04-14T15:14:03.607Z,16.70
2023-04-14T15:16:31.948Z,16.80
2023-04-14T15:19:00.480Z,16.80
2023-04-14T15:21:28.573Z,16.80
2023-04-14T15:23:56.635Z,16.80
2023-04-14T15:26:25.816Z,16.90
2023-04-14T15:28:54.288Z,16.80
2023-04-14T15:31:23.722Z,16.80
2023-04-14T15:33:51.806Z,16.80
2023-04-14T15:36:19.822Z,16.80
2023-04-14T15:38:50.016Z,16.70
2023-04-14T15:41:18.064Z,16.70
2023-04-14T15:43:46.645Z,16.70
2023-04-14T15:46:14.953Z,16.70
2023-04-14T15:48:44.543Z,16.70
2023-04-14T15:51:12.532Z,16.80
2023-04-14T15:53:40.699Z,16.80
2023-04-14T15:56:08.896Z,16.80
2023-04-14T15:58:37.058Z,16.70
2023-04-14T16:01:08.024Z,16.70
2023-04-14T16:03:36.864Z,16.70
2023-04-14T16:06:07.813Z,16.70
2023-04-14T16:08:36.367Z,16.70
2023-04-14T16:11:04.974Z,16.70
2023-04-14T16:13:33.185Z,16.70
2023-04-14T16:16:01.294Z,16.70
2023-04-14T16:18:29.317Z,16.70
2023-04-14T16:20:57.806Z,16.80
2023-04-14T16:23:28.507Z,16.80
2023-04-14T16:25:57.620Z,16.70
2023-04-14T16:28:25.863Z,16.80
2023-04-14T16:30:55.176Z,16.70
2023-04-14T16:33:23.386Z,16.70
2023-04-14T16:35:51.721Z,16.60
2023-04-14T16:38:19.753Z,16.70
2023-04-14T16:40:57.402Z,16.60
2023-04-14T16:43:26.198Z,16.60
2023-04-14T16:45:54.394Z,16.60
2023-04-14T16:48:22.478Z,16.70
2023-04-14T16:50:50.598Z,16.70
2023-04-14T16:53:19.091Z,16.70
2023-04-14T16:55:47.183Z,16.60
2023-04-14T16:58:16.789Z,16.60
2023-04-14T17:00:44.820Z,16.50
2023-04-14T17:03:13.105Z,16.50
2023-04-14T17:05:41.341Z,16.50
2023-04-14T17:08:09.417Z,16.50
2023-04-14T17:10:38.842Z,16.50
2023-04-14T17:13:06.980Z,16.50
2023-04-14T17:15:36.444Z,16.50
2023-04-14T17:18:04.642Z,16.50
2023-04-14T17:20:33.255Z,16.50
2023-04-14T17:23:01.311Z,16.50
2023-04-14T17:25:29.370Z,16.50
2023-04-14T17:27:57.409Z,16.50
2023-04-14T17:30:26.257Z,16.50
2023-04-14T17:32:56.613Z,16.50
2023-04-14T17:35:25.218Z,16.40
2023-04-14T17:37:53.678Z,16.40
2023-04-14T17:40:21.736Z,16.40
2023-04-14T17:42:49.804Z,16.40
2023-04-14T17:45:22.990Z,16.40
2023-04-14T17:47:55.982Z,16.40
2023-04-14T17:50:27.479Z,16.50
2023-04-14T17:52:55.620Z,16.50
2023-04-14T17:55:23.703Z,16.60
2023-04-14T17:57:51.822Z,16.40
2023-04-14T18:00:20.549Z,16.40
2023-04-14T18:02:48.840Z,16.40
2023-04-14T18:05:17.645Z,16.40
2023-04-14T18:07:47.178Z,16.40
2023-04-14T18:10:15.260Z,16.40
2023-04-14T18:12:43.394Z,16.40
2023-04-14T18:15:15.293Z,16.40
2023-04-14T18:17:43.617Z,16.40
2023-04-14T18:20:12.289Z,16.40
2023-04-14T18:22:40.336Z,16.40
2023-04-14T18:25:10.676Z,16.40
2023-04-14T18:30:12.241Z,16.40
2023-04-14T18:32:40.379Z,16.30
2023-04-14T18:35:08.880Z,16.40
2023-04-14T18:37:37.421Z,16.30
2023-04-14T18:40:06.358Z,16.20
2023-04-14T18:42:36.127Z,16.20
2023-04-14T18:45:04.647Z,16.30
2023-04-14T18:47:33.216Z,16.30
2023-04-14T18:50:01.362Z,16.30
2023-04-14T18:52:29.463Z,16.30
2023-04-14T18:54:57.732Z,16.20
2023-04-14T18:57:26.870Z,16.20
2023-04-14T18:59:56.571Z,16.20
2023-04-14T19:02:24.797Z,16.10
2023-04-14T19:04:52.912Z,16.20
2023-04-14T19:07:21.072Z,16.10
2023-04-14T19:09:49.206Z,16.20
2023-04-14T19:12:27.691Z,16.20
2023-04-14T19:14:58.256Z,16.20
2023-04-14T19:17:26.391Z,16.30
2023-04-14T19:19:54.933Z,16.20
2023-04-14T19:22:23.021Z,16.20
2023-04-14T19:24:51.165Z,16.20
2023-04-14T19:27:19.387Z,16.20
2023-04-14T19:29:47.544Z,16.20
2023-04-14T19:32:17.485Z,16.20
2023-04-14T19:34:45.612Z,16.20
2023-04-14T19:37:13.740Z,16.20
2023-04-14T19:39:41.886Z,16.10
2023-04-14T19:42:09.955Z,16.20
2023-04-14T19:44:38.260Z,16.10
2023-04-14T19:47:06.483Z,16.20
2023-04-14T19:49:36.407Z,16.20
2023-04-14T19:52:04.804Z,16.20
2023-04-14T19:54:32.903Z,16.10
2023-04-14T19:57:01.018Z,16.10
2023-04-14T19:59:31.431Z,16.20
2023-04-14T20:02:00.986Z,16.10
2023-04-14T20:04:29.201Z,16.20
2023-04-14T20:06:58.762Z,16.10
2023-04-14T20:09:26.822Z,16.10
2023-04-14T20:11:54.889Z,16.10
2023-04-14T20:14:22.949Z,16.10
2023-04-14T20:16:51.499Z,16.20
2023-04-14T20:19:20.942Z,16.20
2023-04-14T20:21:49.200Z,16.10
2023-04-14T20:24:18.763Z,16.00
2023-04-14T20:26:46.806Z,16.10
2023-04-14T20:29:16.553Z,16.00
2023-04-14T20:31:44.613Z,16.00
2023-04-14T20:34:13.477Z,16.10
2023-04-14T20:36:44.942Z,16.00
2023-04-14T20:39:13.386Z,16.00
2023-04-14T20:41:42.996Z,16.10
2023-04-14T20:44:11.046Z,16.10
2023-04-14T20:46:39.133Z,16.00
2023-04-14T20:49:07.493Z,16.00
2023-04-14T20:51:35.694Z,16.00
2023-04-14T20:54:04.134Z,15.90
2023-04-14T20:56:33.958Z,15.90
2023-04-14T20:59:04.081Z,15.80
2023-04-14T21:01:32.586Z,15.80
2023-04-14T21:04:00.788Z,15.80
2023-04-14T21:06:31.711Z,15.90
2023-04-14T21:09:02.299Z,15.90
2023-04-14T21:11:30.701Z,15.90
2023-04-14T21:15:47.890Z,15.90
2023-04-14T21:16:48.285Z,15.90
2023-04-14T21:19:16.492Z,16.00
2023-04-14T21:21:44.707Z,15.90
2023-04-14T21:24:12.707Z,15.90
2023-04-14T21:26:41.042Z,15.90
2023-04-14T21:29:09.412Z,15.90
2023-04-14T21:31:38.650Z,15.80
2023-04-14T21:34:08.201Z,15.90
2023-04-14T21:36:36.545Z,15.80
2023-04-14T21:39:05.204Z,15.90
2023-04-14T21:41:33.693Z,15.90
2023-04-14T21:44:01.951Z,15.90
2023-04-14T21:46:31.016Z,15.90
2023-04-14T21:48:59.285Z,15.90
2023-04-14T21:51:28.707Z,15.90
2023-04-14T21:53:57.105Z,15.80
2023-04-14T21:56:25.123Z,15.80
2023-04-14T21:58:53.146Z,15.80
2023-04-14T22:01:21.255Z,15.80
2023-04-14T22:03:49.377Z,15.80
2023-04-14T22:06:19.215Z,15.80
2023-04-14T22:08:48.673Z,15.80
2023-04-14T22:11:16.912Z,15.80
2023-04-14T22:13:45.071Z,15.80
2023-04-14T22:16:13.278Z,15.80
2023-04-14T22:18:41.729Z,15.80
2023-04-14T22:21:10.766Z,15.80
2023-04-14T22:23:40.104Z,15.80
2023-04-14T22:26:10.061Z,15.80
2023-04-14T22:28:38.140Z,15.80
2023-04-14T22:31:06.437Z,15.80
2023-04-14T22:33:34.587Z,15.80
2023-04-14T22:36:05.547Z,15.90
2023-04-14T22:38:33.927Z,15.80
2023-04-14T22:41:02.276Z,15.80
2023-04-14T22:43:31.770Z,15.90
2023-04-14T22:45:59.845Z,15.90
2023-04-14T22:48:27.927Z,15.80
2023-04-14T22:50:56.126Z,15.80
2023-04-14T22:53:24.473Z,15.70
2023-04-14T22:55:52.513Z,15.70
2023-04-14T22:58:21.950Z,15.60
2023-04-14T23:00:51.857Z,15.60
2023-04-14T23:03:20.082Z,15.60
2023-04-14T23:05:48.387Z,15.60
2023-04-14T23:08:16.671Z,15.60
2023-04-14T23:10:44.789Z,15.70
2023-04-14T23:13:13.046Z,15.70
2023-04-14T23:15:41.261Z,15.70
2023-04-14T23:18:10.724Z,15.70
2023-04-14T23:20:38.773Z,15.80
2023-04-14T23:23:12.055Z,15.80
2023-04-14T23:25:40.227Z,15.70
2023-04-14T23:28:08.325Z,15.70
2023-04-14T23:30:36.871Z,15.70
2023-04-14T23:33:04.951Z,15.70
2023-04-14T23:35:34.430Z,15.70
2023-04-14T23:38:04.080Z,15.70
2023-04-14T23:40:32.786Z,15.70
2023-04-14T23:43:00.812Z,15.70
2023-04-14T23:45:29.353Z,15.70
2023-04-14T23:47:58.664Z,15.80
2023-04-14T23:50:59.889Z,15.70
2023-04-14T23:53:16.976Z,15.70
2023-04-14T23:55:45.046Z,15.70
2023-04-14T23:58:13.098Z,15.60
